Terminal Aerodrome Forecast
Issued by NWS Mobile, AL

Home | Current Version | Previous Version | Text Only | Print | Product List | Glossary On
Versions: 1 2 3 4 5 6 7 8 9 10 11 12
000
FTUS44 KMOB 271733
TAFMOB
TAF
KMOB 271733Z 2718/2818 15011KT P6SM FEW030 SCT200 BKN250
     FM280600 11004KT P6SM SCT250
     FM281500 13009KT P6SM BKN250=

USA.gov is the U.S. government's official web portal to all federal, state and local government web resources and services.